createdAt,value
2023-04-19T00:00:00.527Z,84
2023-04-19T00:01:09.656Z,84
2023-04-19T00:02:18.812Z,84.5
2023-04-19T00:03:27.000Z,84
2023-04-19T00:04:36.177Z,84.5
2023-04-19T00:05:45.344Z,84
2023-04-19T00:06:54.508Z,84
2023-04-19T00:08:03.685Z,84
2023-04-19T00:09:12.859Z,84
2023-04-19T00:10:21.076Z,84
2023-04-19T00:11:29.242Z,84.5
2023-04-19T00:12:38.406Z,84.5
2023-04-19T00:13:47.607Z,84.5
2023-04-19T00:14:55.783Z,84.5
2023-04-19T00:16:03.988Z,84
2023-04-19T00:18:22.319Z,84
2023-04-19T00:19:31.482Z,85
2023-04-19T00:20:40.664Z,84
2023-04-19T00:21:49.832Z,84
2023-04-19T00:22:59.010Z,84
2023-04-19T00:24:08.172Z,84.5
2023-04-19T00:25:17.361Z,85
2023-04-19T00:26:26.552Z,84.5
2023-04-19T00:27:35.690Z,84.5
2023-04-19T00:28:44.876Z,84.5
2023-04-19T00:29:54.033Z,84.5
2023-04-19T00:31:02.237Z,85
2023-04-19T00:32:11.399Z,84.5
2023-04-19T00:33:20.576Z,85
2023-04-19T00:34:29.748Z,84.5
2023-04-19T00:35:38.936Z,84.5
2023-04-19T00:36:48.085Z,84.5
2023-04-19T00:37:57.241Z,84.5
2023-04-19T00:39:06.439Z,84.5
2023-04-19T00:40:15.604Z,84.5
2023-04-19T00:41:24.773Z,85
2023-04-19T00:42:33.972Z,85
2023-04-19T00:43:42.167Z,85
2023-04-19T00:44:50.339Z,85
2023-04-19T00:45:59.506Z,84.5
2023-04-19T00:47:07.692Z,85
2023-04-19T00:48:15.933Z,84
2023-04-19T00:49:25.064Z,84
2023-04-19T00:50:34.230Z,84.5
2023-04-19T00:51:43.401Z,84
2023-04-19T00:52:52.624Z,84.5
2023-04-19T00:54:01.746Z,84
2023-04-19T00:55:10.956Z,84.5
2023-04-19T00:56:20.090Z,84.5
2023-04-19T00:57:29.286Z,84.5
2023-04-19T00:58:38.439Z,84.5
2023-04-19T00:59:47.611Z,84.5
2023-04-19T01:00:56.878Z,84
2023-04-19T01:02:05.957Z,84.5
2023-04-19T01:03:14.174Z,84
2023-04-19T01:04:23.307Z,84.5
2023-04-19T01:05:32.500Z,84
2023-04-19T01:06:41.649Z,84.5
2023-04-19T01:07:50.903Z,84.5
2023-04-19T01:09:00.015Z,84
2023-04-19T01:10:09.226Z,84
2023-04-19T01:11:17.366Z,83.5
2023-04-19T01:12:25.605Z,83.5
2023-04-19T01:13:34.815Z,83
2023-04-19T01:15:53.139Z,83.5
2023-04-19T01:17:02.255Z,83
2023-04-19T01:18:10.464Z,83.5
2023-04-19T01:19:19.609Z,83.5
2023-04-19T01:20:28.803Z,83.5
2023-04-19T01:21:36.972Z,82.5
2023-04-19T01:22:46.177Z,83
2023-04-19T01:23:55.340Z,82.5
2023-04-19T01:25:04.491Z,82.5
2023-04-19T01:26:13.761Z,82.5
2023-04-19T01:27:22.838Z,82
2023-04-19T01:28:32.085Z,82
2023-04-19T01:29:41.178Z,82.5
2023-04-19T01:30:50.359Z,82.5
2023-04-19T01:31:59.595Z,82.5
2023-04-19T01:33:08.706Z,82.5
2023-04-19T01:34:17.939Z,82
2023-04-19T01:35:27.054Z,82
2023-04-19T01:36:35.241Z,81.5
2023-04-19T01:37:44.408Z,82
2023-04-19T01:38:53.575Z,81.5
2023-04-19T01:41:11.934Z,81.5
2023-04-19T01:42:21.208Z,81.5
2023-04-19T01:43:29.289Z,82
2023-04-19T01:44:37.482Z,82
2023-04-19T01:45:45.670Z,80.5
2023-04-19T01:46:53.884Z,81
2023-04-19T01:48:03.032Z,80.5
2023-04-19T01:49:12.273Z,81
2023-04-19T01:51:30.556Z,81
2023-04-19T01:52:39.749Z,81
2023-04-19T01:53:48.890Z,80
2023-04-19T01:54:58.071Z,81
2023-04-19T01:56:07.235Z,80.5
2023-04-19T01:57:16.491Z,80.5
2023-04-19T01:58:25.620Z,80
2023-04-19T01:59:34.827Z,80
2023-04-19T02:00:43.942Z,79.5
2023-04-19T02:01:52.110Z,80
2023-04-19T02:03:01.362Z,79
2023-04-19T02:04:10.461Z,79
2023-04-19T02:05:19.690Z,79.5
2023-04-19T02:06:28.815Z,79.5
2023-04-19T02:07:37.981Z,78.5
2023-04-19T02:08:47.150Z,78
2023-04-19T02:09:56.326Z,77.5
2023-04-19T02:11:04.521Z,78
2023-04-19T02:12:12.702Z,78
2023-04-19T02:13:21.891Z,78
2023-04-19T02:14:31.040Z,77.5
2023-04-19T02:15:40.209Z,77.5
2023-04-19T02:16:49.433Z,77
2023-04-19T02:17:58.561Z,78
2023-04-19T02:19:07.742Z,77.5
2023-04-19T02:20:16.917Z,76.5
2023-04-19T02:21:26.115Z,76.5
2023-04-19T02:22:35.262Z,77
2023-04-19T02:23:44.436Z,77
2023-04-19T02:24:53.664Z,76.5
2023-04-19T02:26:02.777Z,75.5
2023-04-19T02:27:10.990Z,75
2023-04-19T02:28:20.158Z,75
2023-04-19T02:29:29.323Z,77
2023-04-19T02:30:38.486Z,76
2023-04-19T02:31:47.673Z,75
2023-04-19T02:32:56.825Z,75.5
2023-04-19T02:34:06.008Z,74.5
2023-04-19T02:35:14.198Z,75
2023-04-19T02:36:22.450Z,75
2023-04-19T02:37:30.586Z,73
2023-04-19T02:38:38.767Z,73.5
2023-04-19T02:39:46.963Z,73.5
2023-04-19T02:40:55.165Z,74
2023-04-19T02:42:04.320Z,73
2023-04-19T02:43:13.481Z,74
2023-04-19T02:44:22.690Z,73
2023-04-19T02:45:31.836Z,73
2023-04-19T02:46:41.022Z,73
2023-04-19T02:47:50.181Z,72
2023-04-19T02:48:59.356Z,71.5
2023-04-19T02:50:08.533Z,72
2023-04-19T02:51:17.738Z,72.5
2023-04-19T02:52:26.901Z,71.5
2023-04-19T02:53:36.045Z,69
2023-04-19T02:54:45.220Z,70
2023-04-19T02:55:53.409Z,69.5
2023-04-19T02:57:02.564Z,69
2023-04-19T02:58:11.755Z,68.5
2023-04-19T02:59:20.928Z,70
2023-04-19T03:00:30.089Z,69
2023-04-19T03:01:39.270Z,69
2023-04-19T03:02:48.452Z,67.5
2023-04-19T03:03:56.618Z,68
2023-04-19T03:05:04.823Z,67.5
2023-04-19T03:06:13.017Z,67.5
2023-04-19T03:07:21.196Z,68
2023-04-19T03:08:30.386Z,68
2023-04-19T03:09:39.545Z,67
2023-04-19T03:10:48.722Z,67
2023-04-19T03:11:57.887Z,66.5
2023-04-19T03:13:07.066Z,65
2023-04-19T03:14:16.233Z,67
2023-04-19T03:15:25.397Z,65
2023-04-19T03:16:34.594Z,64.5
2023-04-19T03:17:43.762Z,63.5
2023-04-19T03:18:52.916Z,63.5
2023-04-19T03:20:02.106Z,67
2023-04-19T03:21:11.266Z,66.5
2023-04-19T03:22:19.442Z,64.5
2023-04-19T03:23:28.624Z,63.5
2023-04-19T03:24:36.825Z,67.5
2023-04-19T03:25:46.020Z,64
2023-04-19T03:26:55.161Z,64
2023-04-19T03:28:04.346Z,64
2023-04-19T03:29:13.499Z,64.5
2023-04-19T03:30:22.695Z,64.5
2023-04-19T03:31:31.854Z,65
2023-04-19T03:32:41.024Z,65.5
2023-04-19T03:33:50.198Z,67.5
2023-04-19T03:34:59.370Z,68
2023-04-19T03:36:08.540Z,68
2023-04-19T03:37:17.706Z,68.5
2023-04-19T03:38:26.888Z,69
2023-04-19T03:39:35.069Z,69
2023-04-19T03:40:44.232Z,68.5
2023-04-19T03:41:53.409Z,68.5
2023-04-19T03:43:01.615Z,69.5
2023-04-19T03:44:09.787Z,70
2023-04-19T03:45:18.973Z,70.5
2023-04-19T03:46:28.161Z,69.5
2023-04-19T03:47:36.338Z,68.5
2023-04-19T03:48:44.534Z,68.5
2023-04-19T03:49:53.713Z,69.5
2023-04-19T03:51:02.877Z,69
2023-04-19T03:52:12.084Z,68.5
2023-04-19T03:53:21.237Z,67.5
2023-04-19T03:54:30.387Z,67.5
2023-04-19T03:55:39.576Z,67
2023-04-19T03:56:48.739Z,68
2023-04-19T03:57:57.902Z,67.5
2023-04-19T03:59:07.068Z,67.5
2023-04-19T04:00:16.251Z,68.5
2023-04-19T04:01:25.419Z,68.5
2023-04-19T04:02:34.592Z,69
2023-04-19T04:03:42.792Z,69
2023-04-19T04:04:51.966Z,68.5
2023-04-19T04:06:01.129Z,67.5
2023-04-19T04:07:10.306Z,68
2023-04-19T04:08:19.465Z,68.5
2023-04-19T04:09:28.631Z,67
2023-04-19T04:10:37.814Z,67.5
2023-04-19T04:11:46.981Z,66
2023-04-19T04:12:55.174Z,66.5
2023-04-19T04:14:03.368Z,67
2023-04-19T04:15:12.561Z,67
2023-04-19T04:16:20.730Z,66.5
2023-04-19T04:17:28.922Z,65.5
2023-04-19T04:19:47.278Z,65.5
2023-04-19T04:20:56.461Z,65
2023-04-19T04:22:05.611Z,65.5
2023-04-19T04:23:14.779Z,65
2023-04-19T04:24:23.976Z,66
2023-04-19T04:25:33.131Z,65.5
2023-04-19T04:26:42.301Z,65
2023-04-19T04:27:51.480Z,65
2023-04-19T04:29:00.651Z,65.5
2023-04-19T04:30:09.835Z,64.5
2023-04-19T04:31:18.998Z,65.5
2023-04-19T04:32:27.192Z,65.5
2023-04-19T04:33:36.367Z,64.5
2023-04-19T04:34:45.526Z,65.5
2023-04-19T04:35:54.720Z,65
2023-04-19T04:37:03.923Z,65.5
2023-04-19T04:38:13.067Z,65.5
2023-04-19T04:39:22.267Z,65
2023-04-19T04:40:31.410Z,65.5
2023-04-19T04:41:39.679Z,65
2023-04-19T04:42:47.786Z,65
2023-04-19T04:43:56.966Z,64.5
2023-04-19T04:45:05.164Z,65.5
2023-04-19T04:46:13.347Z,64
2023-04-19T04:47:22.519Z,64
2023-04-19T04:48:31.701Z,64.5
2023-04-19T04:49:40.875Z,65
2023-04-19T04:50:50.046Z,64
2023-04-19T04:51:59.222Z,64
2023-04-19T04:53:08.388Z,63.5
2023-04-19T04:54:17.567Z,64
2023-04-19T04:55:26.758Z,66
2023-04-19T04:56:35.910Z,64
2023-04-19T04:57:45.122Z,65
2023-04-19T04:58:54.258Z,64.5
2023-04-19T05:00:03.418Z,64.5
2023-04-19T05:01:11.614Z,64
2023-04-19T05:02:20.774Z,63.5
2023-04-19T05:03:29.949Z,63.5
2023-04-19T05:04:39.121Z,63
2023-04-19T05:05:48.296Z,64
2023-04-19T05:06:57.470Z,64
2023-04-19T05:08:06.644Z,64
2023-04-19T05:09:14.852Z,64
2023-04-19T05:10:23.028Z,65
2023-04-19T05:12:40.407Z,65.5
2023-04-19T05:13:48.607Z,64
2023-04-19T05:14:56.764Z,64.5
2023-04-19T05:16:05.946Z,64
2023-04-19T05:17:15.116Z,65
2023-04-19T05:18:24.287Z,65
2023-04-19T05:19:33.466Z,64.5
2023-04-19T05:20:42.635Z,64.5
2023-04-19T05:21:51.827Z,66.5
2023-04-19T05:23:00.979Z,67
2023-04-19T05:24:10.146Z,65.5
2023-04-19T05:25:19.327Z,66.5
2023-04-19T05:26:28.497Z,65.5
2023-04-19T05:27:37.672Z,65
2023-04-19T05:28:46.895Z,65.5
2023-04-19T05:29:55.030Z,65.5
2023-04-19T05:31:04.200Z,65.5
2023-04-19T05:33:22.544Z,63.5
2023-04-19T05:34:31.713Z,63.5
2023-04-19T05:35:40.894Z,63.5
2023-04-19T05:36:50.064Z,63.5
2023-04-19T05:37:59.271Z,64.5
2023-04-19T05:39:07.465Z,64
2023-04-19T05:40:15.623Z,62.5
2023-04-19T05:41:24.812Z,62.5
2023-04-19T05:42:33.965Z,62
2023-04-19T05:43:43.144Z,63.5
2023-04-19T05:44:52.321Z,64
2023-04-19T05:46:01.487Z,64
2023-04-19T05:47:10.685Z,63.5
2023-04-19T05:48:19.834Z,65
2023-04-19T05:49:29.024Z,64
2023-04-19T05:50:38.356Z,64.5
2023-04-19T05:51:47.554Z,64.5
2023-04-19T05:52:56.780Z,65
2023-04-19T05:54:05.723Z,67
2023-04-19T05:55:15.061Z,64.5
2023-04-19T05:56:23.064Z,65.5
2023-04-19T05:57:32.323Z,65
2023-04-19T05:58:41.535Z,65.5
2023-04-19T05:59:50.616Z,65
2023-04-19T06:00:59.751Z,64.5
2023-04-19T06:02:08.932Z,66.5
2023-04-19T06:03:17.381Z,65
2023-04-19T06:04:25.419Z,64.5
2023-04-19T06:05:33.565Z,65
2023-04-19T06:06:41.681Z,65
2023-04-19T06:07:50.006Z,65
2023-04-19T06:08:58.123Z,64.5
2023-04-19T06:10:07.317Z,63.5
2023-04-19T06:11:16.624Z,63.5
2023-04-19T06:12:25.577Z,63.5
2023-04-19T06:13:34.935Z,63.5
2023-04-19T06:14:44.020Z,64
2023-04-19T06:15:52.113Z,64
2023-04-19T06:17:00.423Z,64.5
2023-04-19T06:18:09.664Z,64.5
2023-04-19T06:19:18.698Z,65
2023-04-19T06:20:27.846Z,66
2023-04-19T06:21:36.996Z,65
2023-04-19T06:22:46.178Z,64.5
2023-04-19T06:23:55.497Z,65
2023-04-19T06:25:04.700Z,65.5
2023-04-19T06:26:13.729Z,64
2023-04-19T06:27:23.027Z,65
2023-04-19T06:28:32.089Z,66
2023-04-19T06:29:41.214Z,64.5
2023-04-19T06:30:50.575Z,64
2023-04-19T06:31:58.670Z,61.5
2023-04-19T06:33:07.740Z,62
2023-04-19T06:34:17.114Z,62
2023-04-19T06:35:26.173Z,62
2023-04-19T06:36:35.434Z,61.5
2023-04-19T06:37:44.609Z,63
2023-04-19T06:38:53.606Z,62.5
2023-04-19T06:40:01.809Z,63.5
2023-04-19T06:41:10.043Z,62.5
2023-04-19T06:42:19.204Z,61.5
2023-04-19T06:43:27.464Z,64.5
2023-04-19T06:44:35.630Z,62.5
2023-04-19T06:45:44.705Z,63
2023-04-19T06:46:53.913Z,63
2023-04-19T06:48:03.189Z,63.5
2023-04-19T06:49:12.358Z,64.5
2023-04-19T06:50:21.527Z,64
2023-04-19T06:51:30.573Z,63.5
2023-04-19T06:52:39.831Z,61.5
2023-04-19T06:53:48.966Z,62
2023-04-19T06:54:58.248Z,64
2023-04-19T06:56:07.275Z,62
2023-04-19T06:57:16.504Z,62.5
2023-04-19T06:58:25.644Z,62.5
2023-04-19T06:59:33.940Z,62
2023-04-19T07:00:43.081Z,61.5
2023-04-19T07:01:52.134Z,62.5
2023-04-19T07:03:01.366Z,63.5
2023-04-19T07:04:10.592Z,61
2023-04-19T07:05:19.694Z,62
2023-04-19T07:06:28.898Z,63
2023-04-19T07:07:37.107Z,62
2023-04-19T07:08:45.214Z,60.5
2023-04-19T07:09:54.647Z,62
2023-04-19T07:11:03.563Z,61
2023-04-19T07:12:12.727Z,61.5
2023-04-19T07:13:22.020Z,62.5
2023-04-19T07:14:31.223Z,63
2023-04-19T07:15:39.353Z,62
2023-04-19T07:16:48.590Z,62
2023-04-19T07:17:57.609Z,62
2023-04-19T07:19:06.800Z,62
2023-04-19T07:20:16.107Z,62.5
2023-04-19T07:21:25.241Z,60.5
2023-04-19T07:22:34.306Z,61.5
2023-04-19T07:23:43.510Z,61.5
2023-04-19T07:24:52.782Z,61
2023-04-19T07:26:01.824Z,62
2023-04-19T07:27:11.100Z,61
2023-04-19T07:28:20.292Z,61.5
2023-04-19T07:29:29.389Z,61.5
2023-04-19T07:30:37.610Z,62
2023-04-19T07:31:45.711Z,60.5
2023-04-19T07:32:53.995Z,60.5
2023-04-19T07:34:02.229Z,61.5
2023-04-19T07:35:10.275Z,59
2023-04-19T07:36:19.455Z,61
2023-04-19T07:37:28.679Z,61.5
2023-04-19T07:38:37.852Z,62.5
2023-04-19T07:39:47.109Z,60
2023-04-19T07:40:56.163Z,61.5
2023-04-19T07:42:05.458Z,60.5
2023-04-19T07:43:14.622Z,60
2023-04-19T07:44:23.697Z,60.5
2023-04-19T07:45:32.842Z,59.5
2023-04-19T07:46:42.004Z,59.5
2023-04-19T07:47:51.184Z,59.5
2023-04-19T07:49:00.350Z,59.5
2023-04-19T07:50:08.691Z,60
2023-04-19T07:51:17.852Z,59.5
2023-04-19T07:52:27.086Z,60
2023-04-19T07:53:36.176Z,57.5
2023-04-19T07:54:45.235Z,60
2023-04-19T07:55:54.559Z,59
2023-04-19T07:57:03.633Z,59
2023-04-19T07:58:12.845Z,58.5
2023-04-19T07:59:20.945Z,58.5
2023-04-19T08:00:29.125Z,59
2023-04-19T08:01:38.299Z,59
2023-04-19T08:02:46.713Z,57.5
2023-04-19T08:03:54.825Z,57
2023-04-19T08:05:03.860Z,58.5
2023-04-19T08:06:13.082Z,58.5
2023-04-19T08:07:22.255Z,59
2023-04-19T08:08:31.382Z,57
2023-04-19T08:09:40.544Z,56.5
2023-04-19T08:10:49.714Z,57
2023-04-19T08:11:58.888Z,58
2023-04-19T08:13:08.070Z,56.5
2023-04-19T08:14:17.238Z,56
2023-04-19T08:15:26.572Z,56.5
2023-04-19T08:16:35.635Z,55.5
2023-04-19T08:17:44.872Z,57
2023-04-19T08:18:53.101Z,53.5
2023-04-19T08:20:02.129Z,54
2023-04-19T08:21:11.301Z,53.5
2023-04-19T08:22:20.581Z,52.5
2023-04-19T08:23:29.643Z,53.5
2023-04-19T08:24:38.810Z,53
2023-04-19T08:25:47.977Z,52
2023-04-19T08:26:57.184Z,53
2023-04-19T08:28:05.424Z,53
2023-04-19T08:29:14.694Z,54.5
2023-04-19T08:30:23.748Z,52
2023-04-19T08:31:31.894Z,53.5
2023-04-19T08:32:40.082Z,53.5
2023-04-19T08:33:48.331Z,54.5
2023-04-19T08:34:57.514Z,55.5
2023-04-19T08:36:06.641Z,54.5
2023-04-19T08:37:15.905Z,55
2023-04-19T08:38:25.191Z,54
2023-04-19T08:39:34.298Z,57
2023-04-19T08:40:43.344Z,54.5
2023-04-19T08:41:52.652Z,53.5
2023-04-19T08:43:01.651Z,55
2023-04-19T08:44:10.886Z,55.5
2023-04-19T08:45:20.115Z,53.5
2023-04-19T08:46:29.175Z,55
2023-04-19T08:47:38.389Z,54.5
2023-04-19T08:48:46.664Z,53.5
2023-04-19T08:49:55.683Z,55
2023-04-19T08:51:04.866Z,53
2023-04-19T08:52:14.036Z,52
2023-04-19T08:53:23.212Z,54.5
2023-04-19T08:54:32.387Z,51.5
2023-04-19T08:55:41.628Z,52.5
2023-04-19T08:56:49.770Z,51
2023-04-19T08:57:58.021Z,51.5
2023-04-19T08:59:06.147Z,51
2023-04-19T09:00:14.315Z,50
2023-04-19T09:01:23.477Z,50
2023-04-19T09:02:32.679Z,50
2023-04-19T09:03:41.980Z,51
2023-04-19T09:04:51.152Z,50
2023-04-19T09:07:09.344Z,49
2023-04-19T09:08:18.539Z,48
2023-04-19T09:09:27.825Z,49
2023-04-19T09:10:36.993Z,49.5
2023-04-19T09:11:46.118Z,49
2023-04-19T09:12:55.208Z,46.5
2023-04-19T09:14:04.470Z,49
2023-04-19T09:16:21.746Z,47.5
2023-04-19T09:17:29.923Z,47.5
2023-04-19T09:18:38.125Z,48
2023-04-19T09:19:47.301Z,46.5
2023-04-19T09:20:56.464Z,47
2023-04-19T09:22:05.639Z,48
2023-04-19T09:23:14.812Z,47.5
2023-04-19T09:24:23.996Z,48.5
2023-04-19T09:25:33.148Z,47.5
2023-04-19T09:26:42.344Z,46
2023-04-19T09:27:51.491Z,45
2023-04-19T09:29:00.678Z,45.5
2023-04-19T09:30:08.865Z,46
2023-04-19T09:31:17.043Z,47
2023-04-19T09:32:26.223Z,45.5
2023-04-19T09:33:35.389Z,46
2023-04-19T09:34:44.554Z,47
2023-04-19T09:35:53.734Z,44.5
2023-04-19T09:37:02.905Z,45
2023-04-19T09:38:12.085Z,45
2023-04-19T09:39:21.262Z,44.5
2023-04-19T09:40:30.422Z,45
2023-04-19T09:41:39.592Z,44.5
2023-04-19T09:42:48.756Z,43
2023-04-19T09:43:57.945Z,45
2023-04-19T09:45:07.114Z,44.5
2023-04-19T09:46:15.308Z,45
2023-04-19T09:47:24.479Z,44
2023-04-19T09:48:33.643Z,43
2023-04-19T09:49:42.824Z,44.5
2023-04-19T09:50:51.993Z,42
2023-04-19T09:52:01.175Z,42
2023-04-19T09:53:10.390Z,43
2023-04-19T09:54:18.540Z,43
2023-04-19T09:55:26.728Z,44
2023-04-19T09:56:35.894Z,43
2023-04-19T09:57:45.064Z,42
2023-04-19T09:58:54.248Z,41.5
2023-04-19T10:00:03.396Z,44
2023-04-19T10:01:12.575Z,41.5
2023-04-19T10:02:21.745Z,41.5
2023-04-19T10:03:30.921Z,43
2023-04-19T10:04:40.104Z,42.5
2023-04-19T10:05:49.281Z,43.5
2023-04-19T10:06:58.437Z,42.5
2023-04-19T10:08:07.621Z,43.5
2023-04-19T10:09:16.784Z,45
2023-04-19T10:10:24.980Z,43.5
2023-04-19T10:11:34.157Z,44
2023-04-19T10:12:43.320Z,44.5
2023-04-19T10:13:52.515Z,44
2023-04-19T10:15:01.672Z,45.5
2023-04-19T10:16:10.840Z,45.5
2023-04-19T10:18:29.196Z,44.5
2023-04-19T10:19:37.391Z,45.5
2023-04-19T10:20:45.578Z,45.5
2023-04-19T10:21:53.761Z,44.5
2023-04-19T10:23:01.946Z,45.5
2023-04-19T10:24:11.118Z,45.5
2023-04-19T10:25:20.290Z,47
2023-04-19T10:26:29.453Z,46.5
2023-04-19T10:27:38.637Z,46
2023-04-19T10:28:47.816Z,45.5
2023-04-19T10:29:56.988Z,47
2023-04-19T10:31:06.158Z,47
2023-04-19T10:32:15.328Z,46.5
2023-04-19T10:33:24.499Z,46.5
2023-04-19T10:34:33.671Z,47.5
2023-04-19T10:35:42.848Z,47.5
2023-04-19T10:36:52.020Z,46.5
2023-04-19T10:38:00.312Z,45
2023-04-19T10:39:09.360Z,47
2023-04-19T10:40:18.557Z,46.5
2023-04-19T10:41:27.719Z,46
2023-04-19T10:42:36.894Z,46
2023-04-19T10:43:46.077Z,46
2023-04-19T10:44:55.232Z,47
2023-04-19T10:46:03.433Z,47
2023-04-19T10:47:11.630Z,48
2023-04-19T10:48:19.812Z,48.5
2023-04-19T10:49:29.020Z,45
2023-04-19T10:50:37.174Z,46
2023-04-19T10:51:46.347Z,47.5
2023-04-19T10:52:55.528Z,48.5
2023-04-19T10:54:04.685Z,47
2023-04-19T10:55:13.862Z,46
2023-04-19T10:56:23.033Z,46
2023-04-19T10:57:32.212Z,46
2023-04-19T10:58:41.375Z,46.5
2023-04-19T10:59:50.544Z,47.5
2023-04-19T11:00:59.723Z,45.5
2023-04-19T11:02:08.889Z,43
2023-04-19T11:03:18.056Z,44
2023-04-19T11:04:27.229Z,43.5
2023-04-19T11:05:36.397Z,45
2023-04-19T11:06:44.612Z,45
2023-04-19T11:07:53.782Z,44.5
2023-04-19T11:09:02.946Z,42
2023-04-19T11:10:12.122Z,45
2023-04-19T11:11:21.295Z,44
2023-04-19T11:12:29.483Z,39.5
2023-04-19T11:13:37.679Z,40
2023-04-19T11:14:45.867Z,41.5
2023-04-19T11:15:54.051Z,42.5
2023-04-19T11:17:03.226Z,41
2023-04-19T11:18:12.391Z,44.5
2023-04-19T11:19:21.576Z,40.5
2023-04-19T11:20:30.753Z,40
2023-04-19T11:21:39.921Z,40.5
2023-04-19T11:22:49.080Z,41.5
2023-04-19T11:23:58.258Z,40.5
2023-04-19T11:25:07.423Z,41
2023-04-19T11:26:16.606Z,40
2023-04-19T11:27:25.773Z,39
2023-04-19T11:28:34.949Z,42
2023-04-19T11:29:44.116Z,39.5
2023-04-19T11:30:52.315Z,40
2023-04-19T11:32:01.476Z,38.5
2023-04-19T11:33:10.657Z,40.5
2023-04-19T11:34:19.824Z,39.5
2023-04-19T11:35:28.994Z,39.5
2023-04-19T11:36:38.165Z,41
2023-04-19T11:37:47.337Z,40
2023-04-19T11:38:55.539Z,40
2023-04-19T11:40:03.750Z,39.5
2023-04-19T11:41:12.880Z,40
2023-04-19T11:42:22.061Z,41.5
2023-04-19T11:43:30.257Z,39
2023-04-19T11:44:38.465Z,39.5
2023-04-19T11:45:47.631Z,41
2023-04-19T11:46:56.796Z,41
2023-04-19T11:48:05.973Z,39.5
2023-04-19T11:49:15.138Z,39.5
2023-04-19T11:50:24.315Z,39
2023-04-19T11:51:33.487Z,39
2023-04-19T11:52:42.656Z,42
2023-04-19T11:53:51.833Z,40
2023-04-19T11:55:00.998Z,39.5
2023-04-19T11:56:10.162Z,42.5
2023-04-19T11:57:19.332Z,40
2023-04-19T11:58:28.521Z,40.5
2023-04-19T11:59:36.714Z,41
2023-04-19T12:00:45.929Z,41
2023-04-19T12:01:55.054Z,41.5
2023-04-19T12:03:04.219Z,41.5
2023-04-19T12:04:13.406Z,43.5
2023-04-19T12:05:22.573Z,42
2023-04-19T12:06:31.740Z,42
2023-04-19T12:07:39.937Z,41.5
2023-04-19T12:08:48.121Z,41
2023-04-19T12:09:56.309Z,41.5
2023-04-19T12:11:04.569Z,40.5
2023-04-19T12:12:13.677Z,42
2023-04-19T12:13:22.841Z,40.5
2023-04-19T12:14:32.022Z,42
2023-04-19T12:16:50.368Z,40.5
2023-04-19T12:17:59.552Z,41.5
2023-04-19T12:19:08.700Z,41.5
2023-04-19T12:20:17.890Z,41
2023-04-19T12:21:27.088Z,40.5
2023-04-19T12:22:36.271Z,39
2023-04-19T12:23:45.413Z,38.5
2023-04-19T12:24:54.596Z,38.5
2023-04-19T12:26:02.763Z,39
2023-04-19T12:27:11.938Z,39
2023-04-19T12:28:21.130Z,38.5
2023-04-19T12:29:30.259Z,39
2023-04-19T12:30:39.473Z,38.5
2023-04-19T12:31:48.645Z,39
2023-04-19T12:32:57.790Z,37.5
2023-04-19T12:34:06.987Z,38.5
2023-04-19T12:35:16.131Z,37
2023-04-19T12:36:25.311Z,37
2023-04-19T12:37:34.522Z,38
2023-04-19T12:38:43.638Z,39
2023-04-19T12:41:02.010Z,40
2023-04-19T12:42:10.164Z,37.5
2023-04-19T12:43:19.352Z,37
2023-04-19T12:44:28.516Z,38
2023-04-19T12:45:37.692Z,38.5
2023-04-19T12:46:46.861Z,36.5
2023-04-19T12:47:56.044Z,39
2023-04-19T12:49:04.231Z,38
2023-04-19T12:50:12.404Z,38
2023-04-19T12:51:21.588Z,38
2023-04-19T12:52:29.773Z,38
2023-04-19T12:53:37.965Z,39
2023-04-19T12:54:47.164Z,38.5
2023-04-19T12:55:56.312Z,38.5
2023-04-19T12:57:05.484Z,39.5
2023-04-19T12:58:14.649Z,40
2023-04-19T12:59:23.833Z,39.5
2023-04-19T13:00:33.077Z,40.5
2023-04-19T13:01:42.175Z,39.5
2023-04-19T13:02:51.348Z,39.5
2023-04-19T13:04:00.508Z,40.5
2023-04-19T13:05:09.688Z,40.5
2023-04-19T13:06:18.868Z,41
2023-04-19T13:07:28.049Z,40.5
2023-04-19T13:08:36.219Z,41
2023-04-19T13:09:45.402Z,40.5
2023-04-19T13:10:54.569Z,41
2023-04-19T13:12:03.748Z,40
2023-04-19T13:13:12.909Z,40
2023-04-19T13:14:22.079Z,39.5
2023-04-19T13:15:31.251Z,39.5
2023-04-19T13:16:39.483Z,40
2023-04-19T13:17:47.624Z,40
2023-04-19T13:18:56.803Z,39
2023-04-19T13:20:05.983Z,38.5
2023-04-19T13:21:15.152Z,39
2023-04-19T13:22:23.360Z,37.5
2023-04-19T13:23:32.530Z,39
2023-04-19T13:24:40.711Z,40.5
2023-04-19T13:25:49.886Z,39
2023-04-19T13:26:59.060Z,38.5
2023-04-19T13:28:08.222Z,40
2023-04-19T13:29:17.404Z,39.5
2023-04-19T13:30:26.570Z,39
2023-04-19T13:31:35.752Z,39
2023-04-19T13:32:44.916Z,39.5
2023-04-19T13:33:54.070Z,39.5
2023-04-19T13:35:03.247Z,38
2023-04-19T13:36:12.412Z,38
2023-04-19T13:37:21.602Z,37.5
2023-04-19T13:38:30.817Z,39
2023-04-19T13:39:38.960Z,38.5
2023-04-19T13:40:48.144Z,36.5
2023-04-19T13:41:57.298Z,39
2023-04-19T13:43:06.478Z,36.5
2023-04-19T13:44:15.692Z,36
2023-04-19T13:45:24.825Z,37
2023-04-19T13:46:33.019Z,36.5
2023-04-19T13:48:50.390Z,36.5
2023-04-19T13:49:59.542Z,37
2023-04-19T13:51:07.753Z,38
2023-04-19T13:52:15.932Z,34.5
2023-04-19T13:53:25.099Z,36.5
2023-04-19T13:54:34.287Z,36
2023-04-19T13:55:43.531Z,37
2023-04-19T13:58:01.802Z,35.5
2023-04-19T13:59:10.968Z,36.5
2023-04-19T14:00:20.128Z,36
2023-04-19T14:01:29.307Z,37
2023-04-19T14:02:38.483Z,33.5
2023-04-19T14:03:47.654Z,34
2023-04-19T14:04:56.831Z,33
2023-04-19T14:06:05.999Z,32
2023-04-19T14:07:14.186Z,36
2023-04-19T14:08:23.357Z,32
2023-04-19T14:09:32.539Z,33.5
2023-04-19T14:10:41.700Z,31
2023-04-19T14:11:50.874Z,32.5
2023-04-19T14:13:00.054Z,34.5
2023-04-19T14:14:09.198Z,33
2023-04-19T14:15:18.382Z,33.5
2023-04-19T14:16:26.580Z,34.5
2023-04-19T14:17:34.765Z,34
2023-04-19T14:18:43.946Z,35
2023-04-19T14:19:52.138Z,34.5
2023-04-19T14:21:00.325Z,34
2023-04-19T14:22:09.500Z,34
2023-04-19T14:23:18.670Z,35.5
2023-04-19T14:24:27.841Z,35
2023-04-19T14:25:37.013Z,35.5
2023-04-19T14:26:46.187Z,36.5
2023-04-19T14:27:55.354Z,36.5
2023-04-19T14:29:04.527Z,38.5
2023-04-19T14:30:13.692Z,37.5
2023-04-19T14:31:22.883Z,36.5
2023-04-19T14:32:32.057Z,38
2023-04-19T14:33:41.225Z,38.5
2023-04-19T14:34:50.382Z,37
2023-04-19T14:35:58.607Z,38
2023-04-19T14:37:07.750Z,38
2023-04-19T14:38:16.914Z,36
2023-04-19T14:39:26.094Z,37.5
2023-04-19T14:40:35.270Z,37
2023-04-19T14:41:44.433Z,36
2023-04-19T14:42:53.611Z,36
2023-04-19T14:44:01.821Z,36.5
2023-04-19T14:45:09.999Z,34.5
2023-04-19T14:46:19.162Z,36
2023-04-19T14:47:27.356Z,36.5
2023-04-19T14:48:35.544Z,34
2023-04-19T14:49:44.715Z,36
2023-04-19T14:50:53.892Z,35
2023-04-19T14:52:03.079Z,34.5
2023-04-19T14:53:12.223Z,35
2023-04-19T14:54:21.400Z,35.5
2023-04-19T14:55:30.580Z,34.5
2023-04-19T14:56:39.744Z,35.5
2023-04-19T14:57:48.919Z,35.5
2023-04-19T14:58:57.110Z,36
2023-04-19T15:00:06.286Z,36.5
2023-04-19T15:02:24.624Z,36.5
2023-04-19T15:03:33.800Z,36.5
2023-04-19T15:04:42.975Z,35.5
2023-04-19T15:05:52.140Z,35
2023-04-19T15:07:01.314Z,37.5
2023-04-19T15:08:10.493Z,35
2023-04-19T15:09:19.660Z,34.5
2023-04-19T15:10:28.846Z,34
2023-04-19T15:11:38.026Z,33.5
2023-04-19T15:12:46.204Z,33
2023-04-19T15:13:54.377Z,34
2023-04-19T15:15:03.556Z,34
2023-04-19T15:16:12.727Z,34
2023-04-19T15:17:20.930Z,34.5
2023-04-19T15:18:29.130Z,34
2023-04-19T15:19:38.286Z,33.5
2023-04-19T15:20:47.452Z,33.5
2023-04-19T15:21:56.634Z,34.5
2023-04-19T15:23:05.805Z,35
2023-04-19T15:24:14.971Z,34.5
2023-04-19T15:25:24.173Z,35
2023-04-19T15:26:33.322Z,34.5
2023-04-19T15:27:42.493Z,34
2023-04-19T15:28:51.659Z,34
2023-04-19T15:30:00.837Z,33.5
2023-04-19T15:31:10.012Z,33.5
2023-04-19T15:32:19.183Z,35
2023-04-19T15:33:27.363Z,34
2023-04-19T15:34:36.571Z,33
2023-04-19T15:35:45.752Z,34.5
2023-04-19T15:36:54.911Z,33.5
2023-04-19T15:38:04.098Z,34.5
2023-04-19T15:39:13.256Z,35
2023-04-19T15:40:22.461Z,34.5
2023-04-19T15:41:30.626Z,34.5
2023-04-19T15:42:38.814Z,33.5
2023-04-19T15:43:47.988Z,33.5
2023-04-19T15:44:56.196Z,35.5
2023-04-19T15:46:04.374Z,35.5
2023-04-19T15:47:13.539Z,36
2023-04-19T15:48:22.723Z,34.5
2023-04-19T15:49:31.895Z,34
2023-04-19T15:50:41.054Z,34
2023-04-19T15:51:50.231Z,35
2023-04-19T15:54:08.570Z,34.5
2023-04-19T15:55:17.755Z,34
2023-04-19T15:56:26.930Z,34.5
2023-04-19T15:57:36.090Z,35
2023-04-19T15:58:45.267Z,35
2023-04-19T16:01:03.616Z,35
2023-04-19T16:02:11.825Z,35
2023-04-19T16:03:19.999Z,35.5
2023-04-19T16:04:29.162Z,35.5
2023-04-19T16:05:38.339Z,35
2023-04-19T16:06:47.503Z,37.5
2023-04-19T16:07:56.680Z,35
2023-04-19T16:09:05.890Z,35